Evansville, Mississippi
Current Conditions -  °F | °C
As of 12:35 PM on Thursday 29 Jan 2015 (Local Time) from KUTA Reporting Station
Clear Clear  
Wind Chill: 63°   Ceiling: Unl
Heat Index: 63°   Visibility: 10mi
Dew Point: 46°   Wind: 10mph
Humidity: 55%   Direction: 270°W
Pressure: 30.12"   Gusts: NA
Location:  34.6827°N, 90.3615°W
Report Text: KUTA 291835Z AUTO 27009KT 10SM CLR 17/08 A3012 RMK AO2
Loading
Personal Weather Stations






























Interactive Weather Map New forecast layout! Learn more

10-Day Weather Forecast

Advertisements
Track Severe Weather on mobile